sensor_id;sensor_type;location;lat;lon;timestamp;P1;durP1;ratioP1;P2;durP2;ratioP2
27670;SDS011;15077;49.704;9.908;2023-04-15T00:00:13;3.45;;;1.70;;
27670;SDS011;15077;49.704;9.908;2023-04-15T00:02:39;4.30;;;2.00;;
27670;SDS011;15077;49.704;9.908;2023-04-15T00:05:08;2.10;;;1.40;;
27670;SDS011;15077;49.704;9.908;2023-04-15T00:07:34;2.88;;;1.52;;
27670;SDS011;15077;49.704;9.908;2023-04-15T00:10:00;2.88;;;1.35;;
27670;SDS011;15077;49.704;9.908;2023-04-15T00:12:26;3.15;;;1.42;;
27670;SDS011;15077;49.704;9.908;2023-04-15T00:14:52;2.65;;;1.40;;
27670;SDS011;15077;49.704;9.908;2023-04-15T00:17:18;2.08;;;1.25;;
27670;SDS011;15077;49.704;9.908;2023-04-15T00:19:45;2.70;;;1.27;;
27670;SDS011;15077;49.704;9.908;2023-04-15T00:22:11;2.50;;;1.10;;
27670;SDS011;15077;49.704;9.908;2023-04-15T00:24:38;1.60;;;1.10;;
27670;SDS011;15077;49.704;9.908;2023-04-15T00:27:04;3.25;;;1.33;;
27670;SDS011;15077;49.704;9.908;2023-04-15T00:29:31;1.60;;;1.10;;
27670;SDS011;15077;49.704;9.908;2023-04-15T00:31:58;2.22;;;0.88;;
27670;SDS011;15077;49.704;9.908;2023-04-15T00:34:25;2.10;;;1.13;;
27670;SDS011;15077;49.704;9.908;2023-04-15T00:36:54;1.85;;;1.10;;
27670;SDS011;15077;49.704;9.908;2023-04-15T00:39:21;2.25;;;1.27;;
27670;SDS011;15077;49.704;9.908;2023-04-15T00:41:48;2.65;;;1.30;;
27670;SDS011;15077;49.704;9.908;2023-04-15T00:44:14;1.98;;;1.13;;
27670;SDS011;15077;49.704;9.908;2023-04-15T00:46:39;1.70;;;1.10;;
27670;SDS011;15077;49.704;9.908;2023-04-15T00:49:07;1.27;;;0.90;;
27670;SDS011;15077;49.704;9.908;2023-04-15T00:51:33;1.60;;;0.82;;
27670;SDS011;15077;49.704;9.908;2023-04-15T00:54:03;2.80;;;1.20;;
27670;SDS011;15077;49.704;9.908;2023-04-15T00:56:30;1.08;;;0.70;;
27670;SDS011;15077;49.704;9.908;2023-04-15T00:59:00;1.40;;;0.95;;
27670;SDS011;15077;49.704;9.908;2023-04-15T01:01:26;1.30;;;0.90;;
27670;SDS011;15077;49.704;9.908;2023-04-15T01:03:54;1.25;;;0.98;;
27670;SDS011;15077;49.704;9.908;2023-04-15T01:06:22;1.73;;;1.08;;
27670;SDS011;15077;49.704;9.908;2023-04-15T01:08:49;1.85;;;1.10;;
27670;SDS011;15077;49.704;9.908;2023-04-15T01:11:15;2.60;;;1.15;;
27670;SDS011;15077;49.704;9.908;2023-04-15T01:13:43;1.67;;;1.02;;
27670;SDS011;15077;49.704;9.908;2023-04-15T01:16:09;2.00;;;1.30;;
27670;SDS011;15077;49.704;9.908;2023-04-15T01:18:37;3.80;;;1.90;;
27670;SDS011;15077;49.704;9.908;2023-04-15T01:21:04;3.35;;;1.30;;
27670;SDS011;15077;49.704;9.908;2023-04-15T01:23:31;1.60;;;1.17;;
27670;SDS011;15077;49.704;9.908;2023-04-15T01:26:01;1.98;;;1.10;;
27670;SDS011;15077;49.704;9.908;2023-04-15T01:28:32;2.08;;;1.50;;
27670;SDS011;15077;49.704;9.908;2023-04-15T01:31:07;2.30;;;1.17;;
27670;SDS011;15077;49.704;9.908;2023-04-15T01:33:35;1.65;;;0.98;;
27670;SDS011;15077;49.704;9.908;2023-04-15T01:36:03;1.83;;;1.33;;
27670;SDS011;15077;49.704;9.908;2023-04-15T01:38:31;2.03;;;1.17;;
27670;SDS011;15077;49.704;9.908;2023-04-15T01:40:57;1.30;;;1.00;;
27670;SDS011;15077;49.704;9.908;2023-04-15T01:43:24;2.13;;;1.00;;
27670;SDS011;15077;49.704;9.908;2023-04-15T01:45:52;2.20;;;1.10;;
27670;SDS011;15077;49.704;9.908;2023-04-15T01:48:18;1.63;;;1.08;;
27670;SDS011;15077;49.704;9.908;2023-04-15T01:50:43;2.05;;;1.48;;
27670;SDS011;15077;49.704;9.908;2023-04-15T01:53:10;1.60;;;1.10;;
27670;SDS011;15077;49.704;9.908;2023-04-15T01:55:36;1.73;;;1.10;;
27670;SDS011;15077;49.704;9.908;2023-04-15T01:58:02;1.17;;;0.85;;
27670;SDS011;15077;49.704;9.908;2023-04-15T02:00:28;3.35;;;1.42;;
27670;SDS011;15077;49.704;9.908;2023-04-15T02:02:57;3.10;;;1.58;;
27670;SDS011;15077;49.704;9.908;2023-04-15T02:05:23;1.63;;;1.20;;
27670;SDS011;15077;49.704;9.908;2023-04-15T02:07:50;2.33;;;1.33;;
27670;SDS011;15077;49.704;9.908;2023-04-15T02:10:16;2.08;;;1.35;;
27670;SDS011;15077;49.704;9.908;2023-04-15T02:12:41;2.33;;;1.08;;
27670;SDS011;15077;49.704;9.908;2023-04-15T02:15:09;1.92;;;1.30;;
27670;SDS011;15077;49.704;9.908;2023-04-15T02:17:35;1.92;;;1.10;;
27670;SDS011;15077;49.704;9.908;2023-04-15T02:20:02;2.50;;;1.55;;
27670;SDS011;15077;49.704;9.908;2023-04-15T02:22:32;1.83;;;1.15;;
27670;SDS011;15077;49.704;9.908;2023-04-15T02:24:59;1.85;;;1.20;;
27670;SDS011;15077;49.704;9.908;2023-04-15T02:27:24;2.00;;;1.60;;
27670;SDS011;15077;49.704;9.908;2023-04-15T02:29:52;1.75;;;1.33;;
27670;SDS011;15077;49.704;9.908;2023-04-15T02:32:17;1.88;;;1.13;;
27670;SDS011;15077;49.704;9.908;2023-04-15T02:34:44;1.88;;;1.40;;
27670;SDS011;15077;49.704;9.908;2023-04-15T02:37:12;1.95;;;1.15;;
27670;SDS011;15077;49.704;9.908;2023-04-15T02:39:38;1.80;;;1.20;;
27670;SDS011;15077;49.704;9.908;2023-04-15T02:42:07;3.53;;;1.65;;
27670;SDS011;15077;49.704;9.908;2023-04-15T02:44:33;2.13;;;1.50;;
27670;SDS011;15077;49.704;9.908;2023-04-15T02:47:00;2.55;;;1.90;;
27670;SDS011;15077;49.704;9.908;2023-04-15T02:49:27;3.17;;;1.67;;
27670;SDS011;15077;49.704;9.908;2023-04-15T02:51:54;1.98;;;1.30;;
27670;SDS011;15077;49.704;9.908;2023-04-15T02:54:22;2.65;;;1.52;;
27670;SDS011;15077;49.704;9.908;2023-04-15T02:56:48;2.47;;;1.60;;
27670;SDS011;15077;49.704;9.908;2023-04-15T02:59:14;2.72;;;1.70;;
27670;SDS011;15077;49.704;9.908;2023-04-15T03:01:40;2.35;;;1.42;;
27670;SDS011;15077;49.704;9.908;2023-04-15T03:04:06;2.53;;;1.90;;
27670;SDS011;15077;49.704;9.908;2023-04-15T03:06:33;3.30;;;2.45;;
27670;SDS011;15077;49.704;9.908;2023-04-15T03:08:59;4.80;;;2.10;;
27670;SDS011;15077;49.704;9.908;2023-04-15T03:11:26;3.08;;;2.03;;
27670;SDS011;15077;49.704;9.908;2023-04-15T03:13:53;2.95;;;1.95;;
27670;SDS011;15077;49.704;9.908;2023-04-15T03:16:22;3.20;;;1.83;;
27670;SDS011;15077;49.704;9.908;2023-04-15T03:18:48;3.28;;;1.80;;
27670;SDS011;15077;49.704;9.908;2023-04-15T03:21:14;4.60;;;2.72;;
27670;SDS011;15077;49.704;9.908;2023-04-15T03:23:40;6.13;;;3.08;;
27670;SDS011;15077;49.704;9.908;2023-04-15T03:26:06;5.35;;;2.95;;
27670;SDS011;15077;49.704;9.908;2023-04-15T03:28:32;5.32;;;2.70;;
27670;SDS011;15077;49.704;9.908;2023-04-15T03:30:58;5.15;;;2.65;;
27670;SDS011;15077;49.704;9.908;2023-04-15T03:33:24;4.22;;;2.50;;
27670;SDS011;15077;49.704;9.908;2023-04-15T03:35:50;3.60;;;2.40;;
27670;SDS011;15077;49.704;9.908;2023-04-15T03:38:17;3.72;;;2.10;;
27670;SDS011;15077;49.704;9.908;2023-04-15T03:40:44;1.90;;;1.60;;
27670;SDS011;15077;49.704;9.908;2023-04-15T03:43:10;1.55;;;1.30;;
27670;SDS011;15077;49.704;9.908;2023-04-15T03:45:36;2.10;;;1.27;;
27670;SDS011;15077;49.704;9.908;2023-04-15T03:48:02;2.30;;;1.38;;
27670;SDS011;15077;49.704;9.908;2023-04-15T03:50:28;3.10;;;1.58;;
27670;SDS011;15077;49.704;9.908;2023-04-15T03:52:54;1.33;;;1.13;;
27670;SDS011;15077;49.704;9.908;2023-04-15T03:55:20;1.75;;;1.20;;
27670;SDS011;15077;49.704;9.908;2023-04-15T03:57:46;2.47;;;1.65;;
27670;SDS011;15077;49.704;9.908;2023-04-15T04:00:11;1.70;;;1.45;;
27670;SDS011;15077;49.704;9.908;2023-04-15T04:02:37;2.97;;;1.55;;
27670;SDS011;15077;49.704;9.908;2023-04-15T04:05:03;2.28;;;1.40;;
27670;SDS011;15077;49.704;9.908;2023-04-15T04:07:29;2.72;;;1.52;;
27670;SDS011;15077;49.704;9.908;2023-04-15T04:09:56;2.55;;;1.67;;
27670;SDS011;15077;49.704;9.908;2023-04-15T04:12:22;1.85;;;1.15;;
27670;SDS011;15077;49.704;9.908;2023-04-15T04:14:47;2.25;;;1.77;;
27670;SDS011;15077;49.704;9.908;2023-04-15T04:17:13;2.30;;;1.48;;
27670;SDS011;15077;49.704;9.908;2023-04-15T04:19:39;1.60;;;1.20;;
27670;SDS011;15077;49.704;9.908;2023-04-15T04:22:05;2.85;;;1.48;;
27670;SDS011;15077;49.704;9.908;2023-04-15T04:24:31;2.60;;;1.50;;
27670;SDS011;15077;49.704;9.908;2023-04-15T04:26:57;2.70;;;1.75;;
27670;SDS011;15077;49.704;9.908;2023-04-15T04:29:22;2.70;;;1.70;;
27670;SDS011;15077;49.704;9.908;2023-04-15T04:31:48;2.83;;;1.73;;
27670;SDS011;15077;49.704;9.908;2023-04-15T04:34:14;2.40;;;1.48;;
27670;SDS011;15077;49.704;9.908;2023-04-15T04:36:40;3.33;;;1.48;;
27670;SDS011;15077;49.704;9.908;2023-04-15T04:39:06;4.65;;;2.67;;
27670;SDS011;15077;49.704;9.908;2023-04-15T04:41:32;9.77;;;5.30;;
27670;SDS011;15077;49.704;9.908;2023-04-15T04:43:57;20.75;;;10.27;;
27670;SDS011;15077;49.704;9.908;2023-04-15T04:46:23;26.05;;;14.15;;
27670;SDS011;15077;49.704;9.908;2023-04-15T04:48:49;29.83;;;16.85;;
27670;SDS011;15077;49.704;9.908;2023-04-15T04:51:15;44.45;;;24.27;;
27670;SDS011;15077;49.704;9.908;2023-04-15T04:53:42;47.03;;;24.90;;
27670;SDS011;15077;49.704;9.908;2023-04-15T04:56:08;44.10;;;24.83;;
27670;SDS011;15077;49.704;9.908;2023-04-15T04:58:34;39.95;;;20.38;;
27670;SDS011;15077;49.704;9.908;2023-04-15T05:01:00;28.17;;;14.38;;
27670;SDS011;15077;49.704;9.908;2023-04-15T05:03:26;24.05;;;12.48;;
27670;SDS011;15077;49.704;9.908;2023-04-15T05:05:52;18.20;;;8.93;;
27670;SDS011;15077;49.704;9.908;2023-04-15T05:08:18;9.95;;;5.20;;
27670;SDS011;15077;49.704;9.908;2023-04-15T05:10:44;6.35;;;3.58;;
27670;SDS011;15077;49.704;9.908;2023-04-15T05:13:10;5.22;;;3.00;;
27670;SDS011;15077;49.704;9.908;2023-04-15T05:15:36;4.70;;;3.10;;
27670;SDS011;15077;49.704;9.908;2023-04-15T05:18:05;4.60;;;2.90;;
27670;SDS011;15077;49.704;9.908;2023-04-15T05:20:31;4.03;;;3.00;;
27670;SDS011;15077;49.704;9.908;2023-04-15T05:22:56;6.38;;;2.97;;
27670;SDS011;15077;49.704;9.908;2023-04-15T05:25:22;4.45;;;3.15;;
27670;SDS011;15077;49.704;9.908;2023-04-15T05:27:48;4.93;;;3.03;;
27670;SDS011;15077;49.704;9.908;2023-04-15T05:30:13;4.88;;;3.03;;
27670;SDS011;15077;49.704;9.908;2023-04-15T05:32:39;4.63;;;3.05;;
27670;SDS011;15077;49.704;9.908;2023-04-15T05:35:05;5.88;;;2.83;;
27670;SDS011;15077;49.704;9.908;2023-04-15T05:37:32;5.40;;;2.80;;
27670;SDS011;15077;49.704;9.908;2023-04-15T05:39:57;4.25;;;2.97;;
27670;SDS011;15077;49.704;9.908;2023-04-15T05:42:23;5.38;;;2.90;;
27670;SDS011;15077;49.704;9.908;2023-04-15T05:44:49;4.22;;;2.67;;
27670;SDS011;15077;49.704;9.908;2023-04-15T05:47:15;3.45;;;2.75;;
27670;SDS011;15077;49.704;9.908;2023-04-15T05:49:40;3.45;;;2.20;;
27670;SDS011;15077;49.704;9.908;2023-04-15T05:52:06;4.70;;;2.95;;
27670;SDS011;15077;49.704;9.908;2023-04-15T05:54:32;3.97;;;2.58;;
27670;SDS011;15077;49.704;9.908;2023-04-15T05:56:58;2.97;;;2.42;;
27670;SDS011;15077;49.704;9.908;2023-04-15T05:59:23;4.53;;;2.33;;
27670;SDS011;15077;49.704;9.908;2023-04-15T06:01:49;5.53;;;2.60;;
27670;SDS011;15077;49.704;9.908;2023-04-15T06:04:16;2.85;;;2.20;;
27670;SDS011;15077;49.704;9.908;2023-04-15T06:06:41;4.30;;;2.45;;
27670;SDS011;15077;49.704;9.908;2023-04-15T06:09:07;2.83;;;1.90;;
27670;SDS011;15077;49.704;9.908;2023-04-15T06:11:33;3.60;;;2.42;;
27670;SDS011;15077;49.704;9.908;2023-04-15T06:13:59;2.35;;;1.70;;
27670;SDS011;15077;49.704;9.908;2023-04-15T06:16:24;4.60;;;2.08;;
27670;SDS011;15077;49.704;9.908;2023-04-15T06:18:51;2.70;;;2.00;;
27670;SDS011;15077;49.704;9.908;2023-04-15T06:21:17;3.75;;;2.20;;
27670;SDS011;15077;49.704;9.908;2023-04-15T06:23:43;3.15;;;2.30;;
27670;SDS011;15077;49.704;9.908;2023-04-15T06:26:09;2.95;;;2.17;;
27670;SDS011;15077;49.704;9.908;2023-04-15T06:28:35;4.53;;;2.50;;
27670;SDS011;15077;49.704;9.908;2023-04-15T06:31:01;2.97;;;2.10;;
27670;SDS011;15077;49.704;9.908;2023-04-15T06:33:27;4.72;;;2.30;;
27670;SDS011;15077;49.704;9.908;2023-04-15T06:35:53;3.00;;;2.28;;
27670;SDS011;15077;49.704;9.908;2023-04-15T06:38:19;2.72;;;1.98;;
27670;SDS011;15077;49.704;9.908;2023-04-15T06:40:45;4.10;;;2.20;;
27670;SDS011;15077;49.704;9.908;2023-04-15T06:43:11;2.42;;;1.77;;
27670;SDS011;15077;49.704;9.908;2023-04-15T06:45:36;3.65;;;2.17;;
27670;SDS011;15077;49.704;9.908;2023-04-15T06:48:02;4.40;;;2.20;;
27670;SDS011;15077;49.704;9.908;2023-04-15T06:50:28;4.95;;;2.70;;
27670;SDS011;15077;49.704;9.908;2023-04-15T06:52:54;5.00;;;2.70;;
27670;SDS011;15077;49.704;9.908;2023-04-15T06:55:21;3.28;;;2.60;;
27670;SDS011;15077;49.704;9.908;2023-04-15T06:57:46;3.03;;;2.03;;
27670;SDS011;15077;49.704;9.908;2023-04-15T07:00:12;4.07;;;2.30;;
27670;SDS011;15077;49.704;9.908;2023-04-15T07:02:39;4.68;;;3.00;;
27670;SDS011;15077;49.704;9.908;2023-04-15T07:05:05;3.92;;;2.08;;
27670;SDS011;15077;49.704;9.908;2023-04-15T07:07:31;3.65;;;2.38;;
27670;SDS011;15077;49.704;9.908;2023-04-15T07:09:57;5.20;;;3.05;;
27670;SDS011;15077;49.704;9.908;2023-04-15T07:12:23;3.42;;;2.85;;
27670;SDS011;15077;49.704;9.908;2023-04-15T07:14:48;4.85;;;3.97;;
27670;SDS011;15077;49.704;9.908;2023-04-15T07:17:14;5.25;;;3.47;;
27670;SDS011;15077;49.704;9.908;2023-04-15T07:19:40;6.80;;;4.43;;
27670;SDS011;15077;49.704;9.908;2023-04-15T07:22:06;5.03;;;4.10;;
27670;SDS011;15077;49.704;9.908;2023-04-15T07:24:32;5.18;;;3.85;;
27670;SDS011;15077;49.704;9.908;2023-04-15T07:26:57;8.00;;;4.90;;
27670;SDS011;15077;49.704;9.908;2023-04-15T07:29:24;9.20;;;5.13;;
27670;SDS011;15077;49.704;9.908;2023-04-15T07:31:51;5.13;;;3.83;;
27670;SDS011;15077;49.704;9.908;2023-04-15T07:34:17;6.45;;;5.07;;
27670;SDS011;15077;49.704;9.908;2023-04-15T07:36:44;6.10;;;4.40;;
27670;SDS011;15077;49.704;9.908;2023-04-15T07:39:14;10.50;;;6.05;;
27670;SDS011;15077;49.704;9.908;2023-04-15T07:41:40;7.63;;;5.03;;
27670;SDS011;15077;49.704;9.908;2023-04-15T07:44:06;8.50;;;5.63;;
27670;SDS011;15077;49.704;9.908;2023-04-15T07:46:32;6.57;;;4.63;;
27670;SDS011;15077;49.704;9.908;2023-04-15T07:48:58;7.90;;;4.95;;
27670;SDS011;15077;49.704;9.908;2023-04-15T07:51:23;6.20;;;3.88;;
27670;SDS011;15077;49.704;9.908;2023-04-15T07:53:49;5.53;;;3.58;;
27670;SDS011;15077;49.704;9.908;2023-04-15T07:56:15;5.60;;;3.90;;
27670;SDS011;15077;49.704;9.908;2023-04-15T07:58:41;5.82;;;4.20;;
27670;SDS011;15077;49.704;9.908;2023-04-15T08:01:07;6.70;;;5.05;;
27670;SDS011;15077;49.704;9.908;2023-04-15T08:03:33;8.80;;;4.78;;
27670;SDS011;15077;49.704;9.908;2023-04-15T08:05:59;4.75;;;3.58;;
27670;SDS011;15077;49.704;9.908;2023-04-15T08:08:25;7.03;;;4.35;;
27670;SDS011;15077;49.704;9.908;2023-04-15T08:10:51;7.20;;;4.30;;
27670;SDS011;15077;49.704;9.908;2023-04-15T08:13:17;5.22;;;3.58;;
27670;SDS011;15077;49.704;9.908;2023-04-15T08:15:42;5.53;;;3.67;;
27670;SDS011;15077;49.704;9.908;2023-04-15T08:18:08;7.97;;;4.40;;
27670;SDS011;15077;49.704;9.908;2023-04-15T08:20:34;5.07;;;4.20;;
27670;SDS011;15077;49.704;9.908;2023-04-15T08:23:01;6.53;;;3.97;;
27670;SDS011;15077;49.704;9.908;2023-04-15T08:25:27;4.93;;;3.38;;
27670;SDS011;15077;49.704;9.908;2023-04-15T08:27:56;8.68;;;5.28;;
27670;SDS011;15077;49.704;9.908;2023-04-15T08:30:22;7.80;;;4.65;;
27670;SDS011;15077;49.704;9.908;2023-04-15T08:32:48;4.88;;;2.83;;
27670;SDS011;15077;49.704;9.908;2023-04-15T08:35:15;5.85;;;2.75;;
27670;SDS011;15077;49.704;9.908;2023-04-15T08:37:41;4.78;;;2.28;;
27670;SDS011;15077;49.704;9.908;2023-04-15T08:40:07;3.20;;;1.85;;
27670;SDS011;15077;49.704;9.908;2023-04-15T08:42:36;2.13;;;1.70;;
27670;SDS011;15077;49.704;9.908;2023-04-15T08:45:08;2.50;;;1.92;;
27670;SDS011;15077;49.704;9.908;2023-04-15T08:47:37;3.40;;;1.85;;
27670;SDS011;15077;49.704;9.908;2023-04-15T08:50:04;2.13;;;1.60;;
27670;SDS011;15077;49.704;9.908;2023-04-15T08:52:34;2.38;;;1.40;;
27670;SDS011;15077;49.704;9.908;2023-04-15T08:55:01;2.13;;;1.50;;
27670;SDS011;15077;49.704;9.908;2023-04-15T08:57:27;1.90;;;1.38;;
27670;SDS011;15077;49.704;9.908;2023-04-15T08:59:57;2.10;;;1.33;;
27670;SDS011;15077;49.704;9.908;2023-04-15T09:02:23;1.92;;;1.13;;
27670;SDS011;15077;49.704;9.908;2023-04-15T09:04:51;1.80;;;1.17;;
27670;SDS011;15077;49.704;9.908;2023-04-15T09:07:18;2.03;;;1.58;;
27670;SDS011;15077;49.704;9.908;2023-04-15T09:09:43;2.30;;;1.60;;
27670;SDS011;15077;49.704;9.908;2023-04-15T09:12:10;2.42;;;1.52;;
27670;SDS011;15077;49.704;9.908;2023-04-15T09:14:36;2.20;;;1.10;;
27670;SDS011;15077;49.704;9.908;2023-04-15T09:17:04;4.00;;;1.58;;
27670;SDS011;15077;49.704;9.908;2023-04-15T09:19:34;2.35;;;1.80;;
27670;SDS011;15077;49.704;9.908;2023-04-15T09:22:00;2.67;;;1.67;;
27670;SDS011;15077;49.704;9.908;2023-04-15T09:24:36;3.08;;;2.28;;
27670;SDS011;15077;49.704;9.908;2023-04-15T09:27:03;3.45;;;2.05;;
27670;SDS011;15077;49.704;9.908;2023-04-15T09:29:30;3.17;;;2.30;;
27670;SDS011;15077;49.704;9.908;2023-04-15T09:31:57;2.83;;;2.05;;
27670;SDS011;15077;49.704;9.908;2023-04-15T09:34:45;3.38;;;2.60;;
27670;SDS011;15077;49.704;9.908;2023-04-15T09:37:12;3.80;;;2.42;;
27670;SDS011;15077;49.704;9.908;2023-04-15T09:39:50;3.15;;;2.05;;
27670;SDS011;15077;49.704;9.908;2023-04-15T09:42:16;3.38;;;2.30;;
27670;SDS011;15077;49.704;9.908;2023-04-15T09:44:52;2.30;;;1.83;;
27670;SDS011;15077;49.704;9.908;2023-04-15T09:47:28;3.58;;;2.10;;
27670;SDS011;15077;49.704;9.908;2023-04-15T09:49:59;2.53;;;1.63;;
27670;SDS011;15077;49.704;9.908;2023-04-15T09:52:26;2.40;;;1.48;;
27670;SDS011;15077;49.704;9.908;2023-04-15T09:54:53;2.80;;;1.65;;
27670;SDS011;15077;49.704;9.908;2023-04-15T09:57:21;2.08;;;1.33;;
27670;SDS011;15077;49.704;9.908;2023-04-15T09:59:47;2.97;;;2.22;;
27670;SDS011;15077;49.704;9.908;2023-04-15T10:02:14;2.88;;;1.90;;
27670;SDS011;15077;49.704;9.908;2023-04-15T10:04:42;2.53;;;1.80;;
27670;SDS011;15077;49.704;9.908;2023-04-15T10:07:10;4.35;;;1.55;;
27670;SDS011;15077;49.704;9.908;2023-04-15T10:09:37;2.35;;;1.58;;
27670;SDS011;15077;49.704;9.908;2023-04-15T10:12:03;2.03;;;1.48;;
27670;SDS011;15077;49.704;9.908;2023-04-15T10:14:31;2.78;;;1.40;;
27670;SDS011;15077;49.704;9.908;2023-04-15T10:17:03;2.22;;;1.20;;
27670;SDS011;15077;49.704;9.908;2023-04-15T10:19:32;2.05;;;1.30;;
27670;SDS011;15077;49.704;9.908;2023-04-15T10:22:01;1.95;;;1.48;;
27670;SDS011;15077;49.704;9.908;2023-04-15T10:24:27;3.42;;;1.77;;
27670;SDS011;15077;49.704;9.908;2023-04-15T10:26:57;2.15;;;1.48;;
27670;SDS011;15077;49.704;9.908;2023-04-15T10:29:24;2.40;;;1.95;;
27670;SDS011;15077;49.704;9.908;2023-04-15T10:31:56;2.00;;;1.50;;
27670;SDS011;15077;49.704;9.908;2023-04-15T10:34:24;2.60;;;1.60;;
27670;SDS011;15077;49.704;9.908;2023-04-15T10:36:54;2.97;;;2.20;;
27670;SDS011;15077;49.704;9.908;2023-04-15T10:39:41;3.85;;;1.60;;
27670;SDS011;15077;49.704;9.908;2023-04-15T10:42:12;3.08;;;1.40;;
27670;SDS011;15077;49.704;9.908;2023-04-15T10:44:44;2.97;;;1.27;;
27670;SDS011;15077;49.704;9.908;2023-04-15T10:47:16;1.88;;;0.93;;
27670;SDS011;15077;49.704;9.908;2023-04-15T10:49:45;1.90;;;0.80;;
27670;SDS011;15077;49.704;9.908;2023-04-15T10:52:15;2.47;;;0.90;;
27670;SDS011;15077;49.704;9.908;2023-04-15T10:57:13;1.33;;;0.80;;
27670;SDS011;15077;49.704;9.908;2023-04-15T11:02:37;2.38;;;0.80;;
27670;SDS011;15077;49.704;9.908;2023-04-15T11:05:05;2.60;;;1.13;;
27670;SDS011;15077;49.704;9.908;2023-04-15T11:12:51;1.67;;;0.70;;
27670;SDS011;15077;49.704;9.908;2023-04-15T11:20:34;0.75;;;0.50;;
27670;SDS011;15077;49.704;9.908;2023-04-15T11:23:01;3.55;;;1.90;;
27670;SDS011;15077;49.704;9.908;2023-04-15T11:25:28;6.95;;;4.10;;
27670;SDS011;15077;49.704;9.908;2023-04-15T11:27:57;7.28;;;4.65;;
27670;SDS011;15077;49.704;9.908;2023-04-15T11:30:26;7.63;;;3.58;;
27670;SDS011;15077;49.704;9.908;2023-04-15T11:32:57;5.03;;;3.55;;
27670;SDS011;15077;49.704;9.908;2023-04-15T11:35:32;3.80;;;2.63;;
27670;SDS011;15077;49.704;9.908;2023-04-15T11:38:01;1.90;;;1.58;;
27670;SDS011;15077;49.704;9.908;2023-04-15T11:40:29;2.00;;;1.25;;
27670;SDS011;15077;49.704;9.908;2023-04-15T11:43:07;1.23;;;0.73;;
27670;SDS011;15077;49.704;9.908;2023-04-15T11:45:37;3.70;;;1.95;;
27670;SDS011;15077;49.704;9.908;2023-04-15T11:48:18;6.65;;;4.68;;
27670;SDS011;15077;49.704;9.908;2023-04-15T11:50:51;6.15;;;4.40;;
27670;SDS011;15077;49.704;9.908;2023-04-15T11:53:22;6.57;;;3.67;;
27670;SDS011;15077;49.704;9.908;2023-04-15T11:55:52;6.25;;;3.72;;
27670;SDS011;15077;49.704;9.908;2023-04-15T11:58:19;3.00;;;2.10;;
27670;SDS011;15077;49.704;9.908;2023-04-15T12:00:51;2.83;;;2.10;;
27670;SDS011;15077;49.704;9.908;2023-04-15T12:11:30;3.67;;;2.90;;
27670;SDS011;15077;49.704;9.908;2023-04-15T12:16:35;6.70;;;5.13;;
27670;SDS011;15077;49.704;9.908;2023-04-15T12:19:14;8.88;;;7.13;;
27670;SDS011;15077;49.704;9.908;2023-04-15T12:21:49;10.65;;;8.35;;
27670;SDS011;15077;49.704;9.908;2023-04-15T12:24:19;5.10;;;3.47;;
27670;SDS011;15077;49.704;9.908;2023-04-15T12:26:52;5.20;;;4.70;;
27670;SDS011;15077;49.704;9.908;2023-04-15T12:29:25;7.13;;;5.80;;
27670;SDS011;15077;49.704;9.908;2023-04-15T12:32:09;6.07;;;4.22;;
27670;SDS011;15077;49.704;9.908;2023-04-15T12:34:42;4.72;;;4.00;;
27670;SDS011;15077;49.704;9.908;2023-04-15T12:37:14;4.22;;;3.83;;
27670;SDS011;15077;49.704;9.908;2023-04-15T12:39:41;3.38;;;2.70;;
27670;SDS011;15077;49.704;9.908;2023-04-15T12:42:09;4.80;;;2.95;;
27670;SDS011;15077;49.704;9.908;2023-04-15T12:44:36;2.95;;;1.70;;
27670;SDS011;15077;49.704;9.908;2023-04-15T12:47:03;5.30;;;3.22;;
27670;SDS011;15077;49.704;9.908;2023-04-15T12:49:30;7.20;;;5.03;;
27670;SDS011;15077;49.704;9.908;2023-04-15T12:51:57;10.52;;;6.75;;
27670;SDS011;15077;49.704;9.908;2023-04-15T12:54:25;9.20;;;6.18;;
27670;SDS011;15077;49.704;9.908;2023-04-15T12:56:51;11.10;;;6.22;;
27670;SDS011;15077;49.704;9.908;2023-04-15T12:59:18;13.23;;;8.10;;
27670;SDS011;15077;49.704;9.908;2023-04-15T13:01:45;17.67;;;10.98;;
27670;SDS011;15077;49.704;9.908;2023-04-15T13:04:12;15.93;;;8.77;;
27670;SDS011;15077;49.704;9.908;2023-04-15T13:06:39;13.05;;;6.80;;
27670;SDS011;15077;49.704;9.908;2023-04-15T13:09:05;26.88;;;14.93;;
27670;SDS011;15077;49.704;9.908;2023-04-15T13:11:31;21.85;;;13.00;;
27670;SDS011;15077;49.704;9.908;2023-04-15T13:14:01;15.43;;;10.30;;
27670;SDS011;15077;49.704;9.908;2023-04-15T13:16:29;9.00;;;6.85;;
27670;SDS011;15077;49.704;9.908;2023-04-15T13:18:56;9.55;;;6.82;;
27670;SDS011;15077;49.704;9.908;2023-04-15T13:21:26;9.57;;;6.05;;
27670;SDS011;15077;49.704;9.908;2023-04-15T13:23:52;7.18;;;4.60;;
27670;SDS011;15077;49.704;9.908;2023-04-15T13:26:20;8.68;;;6.10;;
27670;SDS011;15077;49.704;9.908;2023-04-15T13:28:46;12.50;;;10.93;;
27670;SDS011;15077;49.704;9.908;2023-04-15T13:31:12;6.00;;;4.53;;
27670;SDS011;15077;49.704;9.908;2023-04-15T13:33:37;4.45;;;3.90;;
27670;SDS011;15077;49.704;9.908;2023-04-15T13:36:03;2.50;;;2.30;;
27670;SDS011;15077;49.704;9.908;2023-04-15T13:38:29;1.83;;;1.40;;
27670;SDS011;15077;49.704;9.908;2023-04-15T13:40:55;1.35;;;1.20;;
27670;SDS011;15077;49.704;9.908;2023-04-15T13:43:21;1.70;;;1.10;;
27670;SDS011;15077;49.704;9.908;2023-04-15T13:45:47;1.83;;;1.40;;
27670;SDS011;15077;49.704;9.908;2023-04-15T13:48:13;2.22;;;1.52;;
27670;SDS011;15077;49.704;9.908;2023-04-15T13:50:39;1.65;;;1.10;;
27670;SDS011;15077;49.704;9.908;2023-04-15T13:53:09;1.33;;;0.88;;
27670;SDS011;15077;49.704;9.908;2023-04-15T13:55:36;0.95;;;0.70;;
27670;SDS011;15077;49.704;9.908;2023-04-15T13:58:05;1.30;;;0.98;;
27670;SDS011;15077;49.704;9.908;2023-04-15T14:00:35;1.33;;;0.80;;
27670;SDS011;15077;49.704;9.908;2023-04-15T14:03:01;0.70;;;0.55;;
27670;SDS011;15077;49.704;9.908;2023-04-15T14:05:26;1.55;;;1.10;;
27670;SDS011;15077;49.704;9.908;2023-04-15T14:07:52;1.88;;;0.82;;
27670;SDS011;15077;49.704;9.908;2023-04-15T14:10:18;1.50;;;1.10;;
27670;SDS011;15077;49.704;9.908;2023-04-15T14:12:44;1.88;;;1.40;;
27670;SDS011;15077;49.704;9.908;2023-04-15T14:15:10;1.88;;;1.25;;
27670;SDS011;15077;49.704;9.908;2023-04-15T14:17:36;1.63;;;0.95;;
27670;SDS011;15077;49.704;9.908;2023-04-15T14:20:02;1.48;;;0.90;;
27670;SDS011;15077;49.704;9.908;2023-04-15T14:22:31;1.83;;;1.30;;
27670;SDS011;15077;49.704;9.908;2023-04-15T14:24:57;2.00;;;1.40;;
27670;SDS011;15077;49.704;9.908;2023-04-15T14:27:23;1.70;;;1.10;;
27670;SDS011;15077;49.704;9.908;2023-04-15T14:29:48;2.88;;;1.88;;
27670;SDS011;15077;49.704;9.908;2023-04-15T14:32:14;2.03;;;1.42;;
27670;SDS011;15077;49.704;9.908;2023-04-15T14:34:40;2.03;;;1.25;;
27670;SDS011;15077;49.704;9.908;2023-04-15T14:37:06;1.52;;;0.75;;
27670;SDS011;15077;49.704;9.908;2023-04-15T14:39:32;1.08;;;0.68;;
27670;SDS011;15077;49.704;9.908;2023-04-15T14:41:57;0.73;;;0.70;;
27670;SDS011;15077;49.704;9.908;2023-04-15T14:44:23;1.65;;;0.82;;
27670;SDS011;15077;49.704;9.908;2023-04-15T14:46:49;0.90;;;0.60;;
27670;SDS011;15077;49.704;9.908;2023-04-15T14:49:16;1.88;;;1.10;;
27670;SDS011;15077;49.704;9.908;2023-04-15T14:51:41;3.05;;;2.00;;
27670;SDS011;15077;49.704;9.908;2023-04-15T14:54:07;1.92;;;1.20;;
27670;SDS011;15077;49.704;9.908;2023-04-15T14:56:33;1.27;;;0.82;;
27670;SDS011;15077;49.704;9.908;2023-04-15T14:58:58;1.40;;;0.88;;
27670;SDS011;15077;49.704;9.908;2023-04-15T15:01:24;1.40;;;0.93;;
27670;SDS011;15077;49.704;9.908;2023-04-15T15:03:50;1.20;;;0.60;;
27670;SDS011;15077;49.704;9.908;2023-04-15T15:06:16;1.50;;;1.10;;
27670;SDS011;15077;49.704;9.908;2023-04-15T15:08:42;1.73;;;1.48;;
27670;SDS011;15077;49.704;9.908;2023-04-15T15:11:07;1.30;;;1.15;;